Latest Weather Observations for Cape Otway

IDV60801

Issued at 11:52 am EST Tuesday 23 April 2019 (issued every 10 minutes, with the page automatically refreshed every 10 minutes)

About weather observations | Map of weather stations | Latest weather observations for VIC | Other Formats
Station Details ID: 090015 Name: CAPE OTWAY LIGHTHOUSE Lat: -38.86 Lon: 143.51 Height: 82.0 m
Data from the previous 72 hours. | See also: Recent months at Cape Otway
Date/Time
EST
Temp
°C
App
Temp
°C
Dew
Point
°C
Rel
Hum
%
Delta-T
°C
Wind Press
QNH
hPa
Press
MSL
hPa
Rain since
9am
mm
Dir  Spd
km/h
Gust
km/h
Spd
kts
Gust
kts
23/11:30am 14.8 12.7 8.3 65 3.3 SSW 9 13 5 7 1029.1 1029.0 0.0
23/11:00am 15.3 12.7 9.2 67 3.1 SSW 13 19 7 10 1029.1 1029.0 0.0
23/10:30am 15.7 14.1 8.7 63 3.6 SSE 7 9 4 5 1029.1 1029.0 0.0
23/10:00am 15.5 14.9 9.0 65 3.3 ESE 2 6 1 3 1029.2 1029.1 0.0
23/09:30am 14.7 14.3 8.4 66 3.2 CALM 0 0 0 0 1029.4 1029.3 0.0
23/09:00am 14.9 13.7 9.7 71 2.7 ESE 6 7 3 4 1029.2 1029.1 0.0
23/08:30am 13.6 12.4 10.4 81 1.7 N 7 9 4 5 1029.1 1029.0 0.0
23/08:00am 10.6 8.9 8.2 85 1.2 N 7 9 4 5 1028.9 1028.8 0.0
23/07:30am 8.4 7.5 5.9 84 1.1 CALM 0 0 0 0 1028.6 1028.5 0.0
23/07:00am 8.6 6.9 6.1 84 1.1 NNE 4 6 2 3 1028.3 1028.2 0.0
23/06:30am 8.6 6.3 5.9 83 1.2 NNE 7 9 4 5 1028.1 1028.0 0.0
23/06:00am 8.9 6.7 6.2 83 1.2 N 7 9 4 5 1027.8 1027.7 0.0
23/05:30am 9.2 6.7 6.6 84 1.2 N 9 11 5 6 1027.8 1027.7 0.0
23/05:00am 8.0 5.2 5.3 83 1.2 NNW 9 11 5 6 1027.8 1027.7 0.0
23/04:30am 7.5 5.0 4.6 82 1.3 NW 7 7 4 4 1027.7 1027.6 0.0
23/04:00am 8.0 5.1 4.9 81 1.4 N 9 11 5 6 1027.7 1027.6 0.0
23/03:30am 8.1 5.8 4.7 79 1.5 N 6 7 3 4 1027.7 1027.6 0.0
23/03:00am 8.8 6.5 5.0 77 1.7 NNE 6 6 3 3 1027.9 1027.8 0.0
23/02:30am 9.0 6.7 4.8 75 1.9 NNE 6 7 3 4 1028.0 1027.9 0.0
23/02:00am 9.3 6.8 4.9 74 2.0 NNE 7 7 4 4 1028.1 1028.0 0.0
23/01:30am 9.5 6.6 4.9 73 2.1 NNE 9 9 5 5 1028.1 1028.0 0.0
23/01:00am 10.0 7.6 5.4 73 2.1 NE 7 9 4 5 1028.2 1028.1 0.0
23/12:30am 10.4 7.3 5.6 72 2.2 NNE 11 11 6 6 1028.1 1028.0 0.0
23/12:00am 10.3 7.6 5.5 72 2.2 NNE 9 11 5 6 1028.1 1028.0 0.0
 
Date/Time
EST
Temp
°C
App
Temp
°C
Dew
Point
°C
Rel
Hum
%
Delta-T
°C
Wind Press
QNH
hPa
Press
MSL
hPa
Rain since
9am
mm
Dir  Spd
km/h
Gust
km/h
Spd
kts
Gust
kts
22/11:30pm 11.4 8.8 6.1 70 2.5 NNE 9 11 5 6 1028.2 1028.1 0.0
22/11:00pm 12.4 10.4 6.9 69 2.6 NNE 7 9 4 5 1028.4 1028.3 0.0
22/10:30pm 12.7 12.1 7.2 69 2.7 CALM 0 0 0 0 1028.7 1028.6 0.0
22/10:00pm 12.9 12.2 6.9 67 2.9 CALM 0 0 0 0 1028.8 1028.7 0.0
22/09:30pm 13.5 12.9 7.3 66 3.0 CALM 0 0 0 0 1029.0 1028.9 0.0
22/09:00pm 13.8 12.8 7.3 65 3.2 S 2 6 1 3 1028.8 1028.7 0.0
22/08:30pm 14.0 12.6 7.1 63 3.4 SSW 4 7 2 4 1028.6 1028.5 0.0
22/08:00pm 14.1 12.2 7.4 64 3.3 SSW 7 13 4 7 1028.6 1028.5 0.0
22/07:30pm 14.0 11.7 7.3 64 3.3 SSW 9 13 5 7 1028.5 1028.4 0.0
22/07:00pm 13.5 11.4 6.6 63 3.3 SSW 7 13 4 7 1028.3 1028.2 0.0
22/06:30pm 13.7 11.1 6.3 61 3.6 SSW 9 13 5 7 1027.9 1027.8 0.0
22/06:00pm 13.8 11.6 6.4 61 3.5 SSW 7 11 4 6 1027.2 1027.2 0.0
22/05:30pm 14.2 11.8 6.8 61 3.6 SW 9 13 5 7 1026.9 1026.9 0.0
22/05:00pm 15.0 11.5 7.1 59 3.9 SW 15 20 8 11 1026.6 1026.6 0.0
22/04:30pm 14.8 11.3 7.1 60 3.8 SW 15 20 8 11 1026.9 1026.9 0.0
22/04:00pm 15.3 12.0 6.6 56 4.2 SW 13 19 7 10 1026.7 1026.7 0.0
22/03:30pm 15.8 12.3 7.3 57 4.2 SW 15 20 8 11 1026.4 1026.4 0.0
22/03:00pm 16.1 12.7 7.8 58 4.2 WSW 15 20 8 11 1026.3 1026.3 0.0
22/02:30pm 15.2 11.4 7.5 60 3.8 SW 17 22 9 12 1026.3 1026.3 0.0
22/02:00pm 16.2 12.4 8.9 62 3.7 SW 19 22 10 12 1026.2 1026.2 0.0
22/01:30pm 16.1 13.1 9.3 64 3.5 SW 15 24 8 13 1026.2 1026.2 0.0
22/01:00pm 15.7 13.0 10.2 70 2.9 W 15 19 8 10 1026.3 1026.3 0.0
22/12:30pm 15.3 13.0 10.3 72 2.6 W 13 19 7 10 1026.6 1026.6 0.0
22/12:00pm 14.9 11.3 9.7 71 2.7 W 19 24 10 13 1026.9 1026.9 0.0
22/11:30am 15.0 11.8 9.8 71 2.7 WSW 17 22 9 12 1026.8 1026.8 0.0
22/11:00am 14.7 12.3 9.9 73 2.5 W 13 22 7 12 1026.3 1026.3 0.0
22/10:30am 15.0 11.3 9.6 70 2.8 WNW 19 28 10 15 1026.2 1026.2 0.0
22/10:00am 15.2 12.5 8.9 66 3.2 WNW 13 17 7 9 1026.1 1026.1 0.0
22/09:30am 14.6 12.4 9.4 71 2.7 NW 11 15 6 8 1026.0 1026.0 0.0
22/09:00am 13.7 10.7 9.2 74 2.3 NNW 15 20 8 11 1025.9 1025.9 0.0
22/08:30am 12.7 10.4 9.0 78 1.9 NNW 11 15 6 8 1025.8 1025.8 0.0
22/08:00am 12.6 11.1 9.1 79 1.8 WNW 7 11 4 6 1025.5 1025.5 0.0
22/07:30am 12.4 9.6 8.7 78 1.9 WNW 13 20 7 11 1025.0 1025.0 0.0
22/07:00am 11.5 8.5 7.8 78 1.8 NNW 13 17 7 9 1024.6 1024.6 0.0
22/06:30am 11.1 7.6 7.4 78 1.8 NNW 15 17 8 9 1024.3 1024.3 0.0
22/06:00am 11.0 7.8 6.7 75 2.0 N 13 15 7 8 1024.1 1024.1 0.0
22/05:30am 12.7 10.0 7.4 70 2.6 WNW 11 17 6 9 1023.6 1023.6 0.0
22/05:00am 13.5 10.5 7.9 69 2.8 WSW 13 19 7 10 1023.5 1023.5 0.0
22/04:30am 13.5 10.5 7.7 68 2.9 W 13 22 7 12 1023.4 1023.4 0.0
22/04:00am 13.4 9.6 7.4 67 2.9 W 17 22 9 12 1023.1 1023.1 0.0
22/03:30am 13.7 9.7 8.1 69 2.8 WSW 19 26 10 14 1023.1 1023.1 0.0
22/03:00am 13.6 9.9 8.0 69 2.8 WSW 17 24 9 13 1023.2 1023.2 0.0
22/02:30am 13.7 9.5 8.3 70 2.7 WSW 20 32 11 17 1023.0 1023.0 0.0
22/02:00am 13.6 9.4 8.2 70 2.7 WSW 20 28 11 15 1023.3 1023.3 0.0
22/01:30am 13.6 9.6 8.2 70 2.7 WSW 19 28 10 15 1023.2 1023.2 0.0
22/01:00am 13.6 10.0 8.4 71 2.6 WSW 17 26 9 14 1023.2 1023.2 0.0
22/12:30am 13.6 9.4 8.4 71 2.6 WSW 20 30 11 16 1022.9 1022.9 0.0
22/12:00am 13.7 8.8 8.5 71 2.6 WSW 24 33 13 18 1022.9 1022.9 0.0
 
Date/Time
EST
Temp
°C
App
Temp
°C
Dew
Point
°C
Rel
Hum
%
Delta-T
°C
Wind Press
QNH
hPa
Press
MSL
hPa
Rain since
9am
mm
Dir  Spd
km/h
Gust
km/h
Spd
kts
Gust
kts
21/11:30pm 13.7 9.2 8.5 71 2.6 WSW 22 33 12 18 1023.0 1023.0 0.0
21/11:00pm 14.2 9.4 9.0 71 2.6 WSW 24 35 13 19 1022.9 1022.9 0.0
21/10:30pm 14.4 9.2 9.0 70 2.8 WSW 26 35 14 19 1022.8 1022.8 0.0
21/10:00pm 14.5 9.5 9.5 72 2.6 WSW 26 35 14 19 1022.5 1022.5 0.0
21/09:30pm 14.4 8.7 9.8 74 2.4 WSW 30 41 16 22 1022.1 1022.0 0.0
21/09:00pm 14.3 8.6 9.9 75 2.3 W 30 39 16 21 1021.7 1021.6 0.0
21/08:30pm 14.5 8.6 10.3 76 2.2 WSW 32 43 17 23 1021.4 1021.3 0.0
21/08:00pm 14.5 8.4 10.5 77 2.1 WSW 33 43 18 23 1020.8 1020.7 0.0
21/07:30pm 14.5 8.1 10.7 78 2.0 W 35 46 19 25 1020.4 1020.3 0.0
21/07:00pm 14.8 8.5 11.0 78 2.0 W 35 44 19 24 1020.0 1019.9 0.0
21/06:30pm 15.1 9.2 11.3 78 2.0 W 33 48 18 26 1019.6 1019.5 0.0
21/06:00pm 15.3 9.7 12.1 81 1.7 W 33 46 18 25 1019.2 1019.1 0.0
21/05:30pm 15.3 10.7 12.2 82 1.7 WNW 28 41 15 22 1018.9 1018.8 0.0
21/05:00pm 15.7 10.6 11.9 78 2.1 W 30 41 16 22 1018.6 1018.5 0.0
21/04:30pm 16.2 11.5 12.0 76 2.3 WNW 28 44 15 24 1018.7 1018.6 0.0
21/04:00pm 16.6 12.4 12.4 76 2.3 WNW 26 37 14 20 1018.3 1018.2 0.0
21/03:30pm 17.1 12.7 13.0 77 2.3 W 28 41 15 22 1018.2 1018.1 0.0
21/03:00pm 18.0 12.7 12.5 70 3.1 W 32 41 17 22 1017.7 1017.6 0.0
21/02:52pm 19.4 15.7 12.7 65 3.8 W 24 41 13 22 1017.5 1017.4 0.0
21/02:30pm 20.9 19.5 12.1 57 4.9 W 11 17 6 9 1016.8 1016.7 0.0
21/02:00pm 22.2 20.6 11.6 51 5.9 W 11 13 6 7 1016.5 1016.4 0.0
21/01:30pm 22.4 21.0 12.1 52 5.8 WNW 11 17 6 9 1016.7 1016.6 0.0
21/01:00pm 22.5 21.0 10.6 47 6.6 WNW 9 13 5 7 1016.8 1016.7 0.0
21/12:30pm 22.2 20.9 11.3 50 6.1 WNW 9 13 5 7 1016.9 1016.8 0.0
21/12:00pm 21.7 20.5 11.7 53 5.6 NNW 9 13 5 7 1017.2 1017.1 0.0
21/11:30am 21.3 19.9 12.2 56 5.1 NNW 11 15 6 8 1017.3 1017.2 0.0
21/11:00am 20.4 18.6 12.1 59 4.6 NW 13 19 7 10 1017.5 1017.4 0.0
21/10:30am 19.9 17.1 12.7 63 4.1 WNW 19 32 10 17 1017.1 1017.0 0.0
21/10:00am 21.7 19.0 8.9 44 6.8 NW 13 24 7 13 1016.7 1016.6 0.0
21/09:30am 22.5 18.9 8.2 40 7.6 NNW 17 26 9 14 1016.3 1016.2 0.0
21/09:00am 22.9 18.3 8.2 39 7.8 N 22 33 12 18 1016.2 1016.1 0.0
21/08:30am 23.1 18.1 8.0 38 8.0 NNW 24 39 13 21 1015.9 1015.8 0.0
21/08:00am 23.9 18.1 7.9 36 8.5 N 28 41 15 22 1014.4 1014.4 0.0
21/07:30am 23.7 17.8 7.3 35 8.6 N 28 46 15 25 1014.2 1014.2 0.0
21/07:24am 23.8 17.9 7.4 35 8.6 N 28 46 15 25 1014.1 1014.1 0.0
21/07:00am 23.8 18.3 7.4 35 8.6 N 26 43 14 23 1014.1 1014.1 0.0
21/06:30am 23.6 18.8 7.3 35 8.5 N 22 39 12 21 1014.4 1014.4 0.0
21/06:00am 24.2 18.5 6.9 33 9.0 N 26 39 14 21 1014.4 1014.4 0.0
21/05:30am 24.3 19.4 7.0 33 9.0 N 22 35 12 19 1014.5 1014.5 0.0
21/05:00am 24.5 19.9 6.7 32 9.3 N 20 33 11 18 1014.5 1014.5 0.0
21/04:30am 24.6 19.7 6.8 32 9.3 N 22 37 12 20 1014.6 1014.6 0.0
21/04:00am 24.3 19.9 6.6 32 9.2 N 19 26 10 14 1014.6 1014.6 0.0
21/03:30am 24.5 20.0 6.3 31 9.4 N 19 32 10 17 1014.9 1014.9 0.0
21/03:00am 24.8 19.7 6.1 30 9.6 N 22 33 12 18 1015.2 1015.1 0.0
21/02:30am 24.6 19.6 6.4 31 9.4 N 22 33 12 18 1015.3 1015.2 0.0
21/02:00am 24.9 19.4 5.7 29 9.8 N 24 39 13 21 1015.5 1015.4 0.0
21/01:30am 24.5 19.0 5.8 30 9.6 N 24 37 13 20 1015.6 1015.5 0.0
21/01:00am 24.5 19.0 5.8 30 9.6 N 24 35 13 19 1015.6 1015.5 0.0
21/12:30am 24.5 19.7 5.8 30 9.6 N 20 28 11 15 1015.9 1015.8 0.0
21/12:00am 24.6 20.4 5.9 30 9.6 NNE 17 26 9 14 1016.2 1016.1 0.0
 
Date/Time
EST
Temp
°C
App
Temp
°C
Dew
Point
°C
Rel
Hum
%
Delta-T
°C
Wind Press
QNH
hPa
Press
MSL
hPa
Rain since
9am
mm
Dir  Spd
km/h
Gust
km/h
Spd
kts
Gust
kts
20/11:30pm 24.6 19.9 5.9 30 9.6 NNE 20 26 11 14 1016.4 1016.3 0.0
20/11:00pm 23.8 19.1 6.1 32 9.1 NNE 20 28 11 15 1016.9 1016.8 0.0
20/10:30pm 21.1 16.8 7.7 42 7.0 NNE 20 24 11 13 1017.2 1017.1 0.0
20/10:00pm 21.0 16.4 8.0 43 6.8 NE 22 26 12 14 1017.4 1017.3 0.0
20/09:30pm 20.9 15.9 8.2 44 6.6 NE 24 32 13 17 1017.7 1017.6 0.0
20/09:00pm 20.7 15.9 9.0 47 6.2 NE 24 30 13 16 1017.9 1017.8 0.0
20/08:30pm 20.0 15.4 9.6 51 5.6 NE 24 32 13 17 1017.8 1017.7 0.0
20/08:00pm 19.5 14.6 10.0 54 5.1 NE 26 33 14 18 1017.8 1017.7 0.0
20/07:30pm 19.1 13.7 10.9 59 4.5 NE 30 35 16 19 1017.6 1017.5 0.0
20/07:00pm 18.5 12.4 10.6 60 4.3 NE 33 44 18 24 1017.7 1017.6 0.0
20/06:30pm 18.7 12.6 10.3 58 4.5 NE 33 44 18 24 1017.7 1017.6 0.0
20/06:00pm 18.4 12.8 10.0 58 4.5 NE 30 39 16 21 1017.7 1017.6 0.0
20/05:30pm 18.6 13.8 10.4 59 4.4 NE 26 39 14 21 1017.6 1017.5 0.0
20/05:00pm 19.2 14.5 10.5 57 4.7 NE 26 39 14 21 1017.8 1017.7 0.0
20/04:30pm 20.7 16.5 11.1 54 5.3 NE 24 32 13 17 1017.8 1017.7 0.0
20/04:00pm 21.8 18.2 11.8 53 5.6 ENE 22 32 12 17 1018.1 1018.0 0.0
20/03:30pm 21.5 18.5 12.6 57 5.1 ENE 20 30 11 16 1018.4 1018.3 0.0
20/03:00pm 21.7 19.0 12.8 57 5.1 ENE 19 28 10 15 1018.8 1018.7 0.0
20/02:30pm 22.1 19.3 12.6 55 5.4 ENE 19 30 10 16 1019.1 1019.0 0.0
20/02:00pm 22.3 19.9 12.8 55 5.4 ENE 17 24 9 13 1019.5 1019.4 0.0
20/01:30pm 23.8 21.0 11.5 46 6.9 ENE 17 26 9 14 1019.8 1019.7 0.0
20/01:00pm 22.9 20.9 12.8 53 5.8 E 15 20 8 11 1020.3 1020.2 0.0
20/12:30pm 21.9 20.3 14.0 61 4.6 E 15 20 8 11 1020.7 1020.6 0.0
20/12:00pm 20.1 18.5 14.0 68 3.5 E 15 20 8 11 1021.2 1021.1 0.0

Other formats

Comma delimited format used in spreadsheet applications
http://www.bom.gov.au/fwo/IDV60801/IDV60801.94842.axf

JavaScript Object Notation format (JSON) in row-major order
http://www.bom.gov.au/fwo/IDV60801/IDV60801.94842.json

Data quality

Most of these data are generated automatically and are frequently updated. Quality checks on data are not normally performed. It is possible for incorrect values to appear. Refer to information at About Latest Weather Observations and please check the disclaimer before using these data.